createdAt,value
2019-06-08T00:00:03.972Z,13.50
2019-06-08T00:02:34.582Z,13.50
2019-06-08T00:05:06.983Z,13.40
2019-06-08T00:07:37.599Z,13.40
2019-06-08T00:10:09.522Z,13.40
2019-06-08T00:12:40.112Z,13.40
2019-06-08T00:15:11.038Z,13.40
2019-06-08T00:17:41.641Z,13.40
2019-06-08T00:20:13.447Z,13.50
2019-06-08T00:22:44.146Z,13.50
2019-06-08T00:25:15.800Z,13.50
2019-06-08T00:27:46.416Z,13.40
2019-06-08T00:30:17.112Z,13.40
2019-06-08T00:32:47.758Z,13.30
2019-06-08T00:35:18.703Z,13.40
2019-06-08T00:37:49.332Z,13.40
2019-06-08T00:40:21.001Z,13.40
2019-06-08T00:42:51.804Z,13.50
2019-06-08T00:45:23.601Z,13.50
2019-06-08T00:47:54.307Z,13.50
2019-06-08T00:50:25.188Z,13.40
2019-06-08T00:52:55.935Z,13.40
2019-06-08T00:55:26.604Z,13.40
2019-06-08T00:57:59.027Z,13.30
2019-06-08T01:00:30.754Z,13.40
2019-06-08T01:03:01.425Z,13.40
2019-06-08T01:05:31.986Z,13.40
2019-06-08T01:08:02.604Z,13.40
2019-06-08T01:10:33.155Z,13.40
2019-06-08T01:13:03.757Z,13.40
2019-06-08T01:15:34.639Z,13.40
2019-06-08T01:18:05.206Z,13.30
2019-06-08T01:20:35.830Z,13.20
2019-06-08T01:23:06.464Z,13.30
2019-06-08T01:25:37.143Z,13.20
2019-06-08T01:28:07.744Z,13.10
2019-06-08T01:30:38.323Z,13.10
2019-06-08T01:33:08.958Z,13.20
2019-06-08T01:35:39.525Z,13.20
2019-06-08T01:38:10.587Z,13.10
2019-06-08T01:40:41.161Z,13.10
2019-06-08T01:43:11.786Z,13.10
2019-06-08T01:45:42.367Z,13.10
2019-06-08T01:48:20.151Z,13.10
2019-06-08T01:50:45.299Z,13.10
2019-06-08T01:53:15.861Z,13.10
2019-06-08T01:55:46.474Z,13.10
2019-06-08T01:58:17.069Z,13.10
2019-06-08T02:00:47.688Z,13.00
2019-06-08T02:03:18.436Z,12.90
2019-06-08T02:05:49.080Z,12.90
2019-06-08T02:08:19.658Z,12.90
2019-06-08T02:10:50.231Z,12.90
2019-06-08T02:13:20.830Z,12.90
2019-06-08T02:15:51.392Z,12.90
2019-06-08T02:18:35.380Z,12.90
2019-06-08T02:20:54.307Z,13.00
2019-06-08T02:23:24.911Z,13.00
2019-06-08T02:25:55.507Z,12.90
2019-06-08T02:28:27.355Z,12.90
2019-06-08T02:30:58.247Z,12.90
2019-06-08T02:33:30.288Z,12.90
2019-06-08T02:36:00.912Z,12.90
2019-06-08T02:38:32.083Z,12.90
2019-06-08T02:41:04.018Z,13.00
2019-06-08T02:43:35.821Z,13.00
2019-06-08T02:46:07.023Z,13.00
2019-06-08T02:49:00.290Z,12.90
2019-06-08T02:51:10.236Z,12.90
2019-06-08T02:53:41.593Z,12.80
2019-06-08T02:56:15.976Z,12.70
2019-06-08T02:58:48.118Z,12.90
2019-06-08T03:01:20.724Z,12.90
2019-06-08T03:03:53.607Z,12.80
2019-06-08T03:06:24.161Z,12.80
2019-06-08T03:08:57.876Z,12.80
2019-06-08T03:11:28.504Z,12.80
2019-06-08T03:14:00.117Z,12.80
2019-06-08T03:16:31.234Z,12.80
2019-06-08T03:19:20.133Z,12.90
2019-06-08T03:21:35.994Z,12.80
2019-06-08T03:24:06.723Z,12.80
2019-06-08T03:26:40.893Z,12.80
2019-06-08T03:29:09.673Z,12.80
2019-06-08T03:31:51.187Z,12.80
2019-06-08T03:34:12.695Z,12.90
2019-06-08T03:36:51.183Z,12.80
2019-06-08T03:39:15.634Z,12.70
2019-06-08T03:41:46.219Z,12.70
2019-06-08T03:44:16.775Z,12.70
2019-06-08T03:46:47.384Z,12.70
2019-06-08T03:49:17.955Z,12.80
2019-06-08T03:51:49.118Z,12.80
2019-06-08T03:54:19.888Z,12.80
2019-06-08T03:56:50.487Z,12.80
2019-06-08T03:59:21.080Z,12.80
2019-06-08T04:01:51.659Z,12.80
2019-06-08T04:04:22.240Z,12.80
2019-06-08T04:06:52.853Z,12.80
2019-06-08T04:09:23.441Z,12.80
2019-06-08T04:11:54.366Z,12.80
2019-06-08T04:14:24.950Z,12.80
2019-06-08T04:16:55.545Z,12.90
2019-06-08T04:19:26.130Z,12.90
2019-06-08T04:21:56.743Z,12.80
2019-06-08T04:24:27.324Z,12.90
2019-06-08T04:26:57.958Z,12.90
2019-06-08T04:29:28.599Z,12.90
2019-06-08T04:31:59.225Z,13.00
2019-06-08T04:34:29.907Z,13.00
2019-06-08T04:37:00.469Z,12.90
2019-06-08T04:39:31.181Z,12.90
2019-06-08T04:42:01.820Z,13.00
2019-06-08T04:44:32.382Z,12.90
2019-06-08T04:47:03.039Z,13.00
2019-06-08T04:49:33.642Z,12.90
2019-06-08T04:52:04.230Z,12.90
2019-06-08T04:54:34.818Z,12.90
2019-06-08T04:57:05.457Z,13.00
2019-06-08T04:59:36.116Z,13.00
2019-06-08T05:02:06.735Z,13.10
2019-06-08T05:04:38.814Z,13.10
2019-06-08T05:07:09.635Z,13.10
2019-06-08T05:09:41.076Z,13.10
2019-06-08T05:12:11.790Z,13.10
2019-06-08T05:14:43.066Z,13.10
2019-06-08T05:17:13.736Z,13.10
2019-06-08T05:19:50.515Z,13.20
2019-06-08T05:22:21.293Z,13.20
2019-06-08T05:24:52.224Z,13.20
2019-06-08T05:27:22.918Z,13.20
2019-06-08T05:29:53.581Z,13.30
2019-06-08T05:32:24.198Z,13.40
2019-06-08T05:34:54.813Z,13.40
2019-06-08T05:37:25.412Z,13.50
2019-06-08T05:39:56.117Z,13.60
2019-06-08T05:42:26.733Z,13.70
2019-06-08T05:44:57.379Z,13.90
2019-06-08T05:47:27.990Z,14.10
2019-06-08T05:49:58.710Z,14.20
2019-06-08T05:52:29.334Z,14.40
2019-06-08T05:54:59.918Z,14.40
2019-06-08T05:57:30.510Z,14.40
2019-06-08T06:00:08.413Z,14.30
2019-06-08T06:02:33.990Z,14.50
2019-06-08T06:05:05.597Z,14.50
2019-06-08T06:07:40.528Z,14.70
2019-06-08T06:10:11.686Z,14.70
2019-06-08T06:12:42.994Z,14.80
2019-06-08T06:15:15.642Z,15.10
2019-06-08T06:17:48.422Z,15.50
2019-06-08T06:20:19.981Z,15.60
2019-06-08T06:22:52.592Z,15.40
2019-06-08T06:25:23.047Z,15.20
2019-06-08T06:27:53.780Z,14.90
2019-06-08T06:30:24.558Z,14.90
2019-06-08T06:32:55.155Z,14.90
2019-06-08T06:35:25.784Z,14.70
2019-06-08T06:37:56.384Z,14.70
2019-06-08T06:40:41.913Z,14.70
2019-06-08T06:43:12.532Z,14.70
2019-06-08T06:45:44.032Z,15.00
2019-06-08T06:48:15.011Z,15.20
2019-06-08T06:50:46.307Z,15.20
2019-06-08T06:53:16.944Z,15.40
2019-06-08T06:55:48.938Z,15.40
2019-06-08T06:58:19.726Z,15.40
2019-06-08T07:00:51.318Z,15.40
2019-06-08T07:03:22.479Z,15.60
2019-06-08T07:05:54.250Z,15.40
2019-06-08T07:08:25.006Z,15.60
2019-06-08T07:10:55.667Z,15.70
2019-06-08T07:13:26.337Z,15.80
2019-06-08T07:15:58.220Z,15.80
2019-06-08T07:18:29.112Z,15.90
2019-06-08T07:20:59.728Z,15.70
2019-06-08T07:23:31.383Z,15.60
2019-06-08T07:26:02.128Z,16.30
2019-06-08T07:28:32.745Z,17.90
2019-06-08T07:31:03.400Z,18.90
2019-06-08T07:33:34.000Z,19.00
2019-06-08T07:36:04.861Z,19.00
2019-06-08T07:38:35.491Z,18.80
2019-06-08T07:41:06.117Z,18.60
2019-06-08T07:43:36.750Z,18.90
2019-06-08T07:46:07.399Z,19.70
2019-06-08T07:48:37.997Z,19.30
2019-06-08T07:51:08.617Z,20.00
2019-06-08T07:53:39.201Z,19.60
2019-06-08T07:56:09.773Z,19.60
2019-06-08T07:58:40.957Z,19.00
2019-06-08T08:01:12.134Z,18.60
2019-06-08T08:03:42.920Z,19.30
2019-06-08T08:06:13.557Z,20.00
2019-06-08T08:08:44.796Z,20.90
2019-06-08T08:11:15.488Z,21.40
2019-06-08T08:13:46.670Z,21.50
2019-06-08T08:16:17.935Z,21.70
2019-06-08T08:18:49.093Z,21.60
2019-06-08T08:21:25.692Z,22.10
2019-06-08T08:23:53.548Z,22.40
2019-06-08T08:26:27.143Z,22.90
2019-06-08T08:29:01.352Z,22.20
2019-06-08T08:31:30.517Z,21.50
2019-06-08T08:34:05.680Z,21.70
2019-06-08T08:36:34.675Z,22.30
2019-06-08T08:39:08.422Z,21.80
2019-06-08T08:41:39.825Z,21.00
2019-06-08T08:44:10.973Z,20.40
2019-06-08T08:46:42.258Z,19.80
2019-06-08T08:49:13.471Z,19.40
2019-06-08T08:51:44.728Z,19.40
2019-06-08T08:54:18.152Z,19.10
2019-06-08T08:56:52.243Z,18.90
2019-06-08T08:59:21.716Z,19.40
2019-06-08T09:01:52.980Z,20.10
2019-06-08T09:04:24.192Z,19.60
2019-06-08T09:06:57.904Z,19.20
2019-06-08T09:09:28.899Z,19.50
2019-06-08T09:12:03.098Z,19.30
2019-06-08T09:14:33.221Z,19.10
2019-06-08T09:17:04.541Z,19.40
2019-06-08T09:19:37.976Z,20.40
2019-06-08T09:22:08.793Z,21.20
2019-06-08T09:24:40.021Z,20.90
2019-06-08T09:27:11.213Z,21.30
2019-06-08T09:29:42.359Z,21.70
2019-06-08T09:32:13.547Z,22.10
2019-06-08T09:34:44.726Z,22.50
2019-06-08T09:37:18.355Z,22.60
2019-06-08T09:39:48.937Z,22.10
2019-06-08T09:42:21.217Z,21.10
2019-06-08T09:44:53.889Z,21.80
2019-06-08T09:47:27.891Z,21.70
2019-06-08T09:50:01.718Z,22.00
2019-06-08T09:52:31.407Z,22.20
2019-06-08T09:55:05.858Z,22.60
2019-06-08T09:57:35.602Z,22.60
2019-06-08T10:00:17.200Z,22.70
2019-06-08T10:02:40.718Z,22.10
2019-06-08T10:05:12.010Z,21.60
2019-06-08T10:07:43.253Z,21.50
2019-06-08T10:10:14.715Z,22.30
2019-06-08T10:12:48.411Z,22.00
2019-06-08T10:15:19.221Z,22.00
2019-06-08T10:17:50.479Z,22.40
2019-06-08T10:20:21.643Z,21.60
2019-06-08T10:22:52.922Z,21.50
2019-06-08T10:25:24.105Z,22.00
2019-06-08T10:27:55.292Z,21.90
2019-06-08T10:33:00.502Z,22.30
2019-06-08T10:35:29.922Z,22.50
2019-06-08T10:38:05.065Z,22.40
2019-06-08T10:40:35.692Z,21.60
2019-06-08T10:43:09.502Z,21.90
2019-06-08T10:45:39.932Z,21.40
2019-06-08T10:48:11.789Z,21.00
2019-06-08T10:50:42.966Z,21.10
2019-06-08T10:53:16.641Z,21.50
2019-06-08T10:55:48.223Z,21.40
2019-06-08T10:58:20.813Z,21.50
2019-06-08T11:00:52.030Z,21.20
2019-06-08T11:03:23.161Z,21.00
2019-06-08T11:05:54.400Z,20.90
2019-06-08T11:08:27.560Z,21.00
2019-06-08T11:10:59.998Z,20.90
2019-06-08T11:13:31.555Z,20.80
2019-06-08T11:16:04.009Z,21.00
2019-06-08T11:18:35.658Z,21.10
2019-06-08T11:21:10.239Z,21.30
2019-06-08T11:23:41.683Z,21.20
2019-06-08T11:26:19.694Z,21.20
2019-06-08T11:28:48.278Z,21.10
2019-06-08T11:31:19.569Z,21.40
2019-06-08T11:33:51.165Z,21.20
2019-06-08T11:36:22.351Z,21.10
2019-06-08T11:38:53.529Z,21.00
2019-06-08T11:41:27.696Z,21.00
2019-06-08T11:44:00.150Z,21.20
2019-06-08T11:46:30.876Z,21.40
2019-06-08T11:49:05.083Z,21.30
2019-06-08T11:51:37.687Z,21.30
2019-06-08T11:54:25.479Z,21.30
2019-06-08T11:56:41.517Z,21.10
2019-06-08T11:59:14.586Z,21.20
2019-06-08T12:01:45.723Z,21.10
2019-06-08T12:04:18.391Z,21.30
2019-06-08T12:06:49.733Z,21.10
2019-06-08T12:09:20.972Z,21.20
2019-06-08T12:11:52.149Z,21.20
2019-06-08T12:14:23.368Z,21.30
2019-06-08T12:16:54.560Z,21.10
2019-06-08T12:19:28.300Z,20.80
2019-06-08T12:21:58.715Z,20.50
2019-06-08T12:24:41.345Z,20.90
2019-06-08T12:27:10.295Z,20.90
2019-06-08T12:29:36.249Z,20.90
2019-06-08T12:32:09.389Z,21.00
2019-06-08T12:34:40.435Z,21.00
2019-06-08T12:37:14.700Z,21.00
2019-06-08T12:39:44.530Z,21.20
2019-06-08T12:42:20.874Z,21.00
2019-06-08T12:44:48.734Z,20.70
2019-06-08T12:47:25.867Z,20.80
2019-06-08T12:49:52.979Z,21.10
2019-06-08T12:52:24.181Z,21.30
2019-06-08T12:55:03.458Z,21.30
2019-06-08T12:57:28.634Z,21.30
2019-06-08T13:00:00.262Z,21.00
2019-06-08T13:02:31.599Z,20.90
2019-06-08T13:05:02.900Z,21.00
2019-06-08T13:07:34.111Z,21.00
2019-06-08T13:10:06.121Z,21.30
2019-06-08T13:12:40.491Z,21.40
2019-06-08T13:15:11.647Z,21.00
2019-06-08T13:17:43.494Z,21.20
2019-06-08T13:20:22.081Z,21.00
2019-06-08T13:22:52.011Z,21.00
2019-06-08T13:25:36.139Z,21.00
2019-06-08T13:27:58.329Z,20.90
2019-06-08T13:30:32.221Z,21.30
2019-06-08T13:33:02.203Z,21.20
2019-06-08T13:35:33.409Z,21.10
2019-06-08T13:38:04.615Z,20.90
2019-06-08T13:40:37.681Z,20.60
2019-06-08T13:43:08.723Z,20.50
2019-06-08T13:45:39.878Z,20.60
2019-06-08T13:48:11.986Z,20.70
2019-06-08T13:50:43.307Z,21.00
2019-06-08T13:53:14.606Z,21.00
2019-06-08T13:55:55.004Z,21.00
2019-06-08T13:58:25.784Z,20.70
2019-06-08T14:00:51.901Z,21.00
2019-06-08T14:03:24.391Z,20.90
2019-06-08T14:05:56.151Z,20.50
2019-06-08T14:08:32.727Z,20.50
2019-06-08T14:11:01.072Z,20.80
2019-06-08T14:13:34.370Z,20.90
2019-06-08T14:16:05.351Z,21.00
2019-06-08T14:18:38.448Z,21.10
2019-06-08T14:21:09.548Z,20.80
2019-06-08T14:23:41.397Z,20.60
2019-06-08T14:26:12.817Z,20.50
2019-06-08T14:28:43.987Z,20.50
2019-06-08T14:31:15.220Z,20.50
2019-06-08T14:33:48.415Z,20.40
2019-06-08T14:36:22.075Z,20.00
2019-06-08T14:38:52.234Z,19.90
2019-06-08T14:41:24.572Z,19.80
2019-06-08T14:43:58.461Z,19.80
2019-06-08T14:46:28.895Z,19.90
2019-06-08T14:49:02.721Z,19.80
2019-06-08T14:51:49.790Z,19.80
2019-06-08T14:54:25.060Z,19.90
2019-06-08T14:56:54.937Z,19.90
2019-06-08T14:59:29.951Z,19.70
2019-06-08T15:02:00.205Z,19.70
2019-06-08T15:04:36.021Z,19.70
2019-06-08T15:07:04.327Z,19.90
2019-06-08T15:09:37.559Z,19.70
2019-06-08T15:12:09.495Z,19.60
2019-06-08T15:14:40.823Z,19.70
2019-06-08T15:17:12.314Z,19.40
2019-06-08T15:19:43.496Z,19.40
2019-06-08T15:22:14.682Z,19.50
2019-06-08T15:24:47.891Z,19.60
2019-06-08T15:27:21.532Z,19.60
2019-06-08T15:29:51.826Z,19.40
2019-06-08T15:32:23.049Z,19.30
2019-06-08T15:34:54.243Z,19.20
2019-06-08T15:37:30.785Z,19.30
2019-06-08T15:40:02.312Z,19.30
2019-06-08T15:42:33.651Z,19.10
2019-06-08T15:45:04.414Z,18.80
2019-06-08T15:47:35.655Z,18.70
2019-06-08T15:50:08.831Z,18.70
2019-06-08T15:52:40.271Z,18.70
2019-06-08T15:55:11.679Z,18.60
2019-06-08T15:57:42.900Z,18.60
2019-06-08T16:00:13.849Z,18.50
2019-06-08T16:02:44.602Z,18.60
2019-06-08T16:05:15.756Z,18.50
2019-06-08T16:07:46.395Z,18.40
2019-06-08T16:10:17.124Z,18.60
2019-06-08T16:12:48.430Z,18.30
2019-06-08T16:15:19.207Z,18.30
2019-06-08T16:17:49.808Z,18.30
2019-06-08T16:20:20.405Z,18.50
2019-06-08T16:22:51.091Z,18.20
2019-06-08T16:25:22.265Z,18.10
2019-06-08T16:27:53.030Z,18.00
2019-06-08T16:30:24.434Z,18.10
2019-06-08T16:32:55.194Z,18.00
2019-06-08T16:35:25.797Z,18.00
2019-06-08T16:37:56.992Z,18.00
2019-06-08T16:40:27.714Z,18.00
2019-06-08T16:42:58.405Z,18.00
2019-06-08T16:45:29.060Z,17.90
2019-06-08T16:48:00.297Z,17.90
2019-06-08T16:50:32.174Z,17.90
2019-06-08T16:53:02.934Z,17.80
2019-06-08T16:55:34.013Z,17.80
2019-06-08T16:58:05.273Z,17.80
2019-06-08T17:00:40.226Z,17.80
2019-06-08T17:03:09.177Z,17.80
2019-06-08T17:05:39.983Z,17.60
2019-06-08T17:08:11.335Z,17.70
2019-06-08T17:10:42.020Z,17.60
2019-06-08T17:13:13.203Z,17.50
2019-06-08T17:15:44.466Z,17.50
2019-06-08T17:18:15.108Z,17.60
2019-06-08T17:20:46.632Z,17.50
2019-06-08T17:23:18.339Z,17.50
2019-06-08T17:25:49.571Z,17.40
2019-06-08T17:28:20.191Z,17.40
2019-06-08T17:30:50.877Z,17.40
2019-06-08T17:33:21.516Z,17.30
2019-06-08T17:35:52.137Z,17.30
2019-06-08T17:38:22.793Z,17.30
2019-06-08T17:40:53.423Z,17.20
2019-06-08T17:43:24.299Z,17.20
2019-06-08T17:45:54.910Z,17.20
2019-06-08T17:48:25.540Z,17.10
2019-06-08T17:50:56.220Z,17.10
2019-06-08T17:53:27.433Z,17.10
2019-06-08T17:55:58.054Z,17.00
2019-06-08T17:58:28.693Z,17.00
2019-06-08T18:00:59.364Z,17.00
2019-06-08T18:03:29.979Z,17.00
2019-06-08T18:06:00.636Z,16.90
2019-06-08T18:08:31.272Z,16.80
2019-06-08T18:11:01.959Z,16.80
2019-06-08T18:13:32.522Z,16.80
2019-06-08T18:16:03.160Z,16.80
2019-06-08T18:18:34.145Z,16.80
2019-06-08T18:21:04.826Z,16.70
2019-06-08T18:23:39.150Z,16.70
2019-06-08T18:26:07.932Z,16.60
2019-06-08T18:28:40.567Z,16.60
2019-06-08T18:31:11.201Z,16.50
2019-06-08T18:33:45.250Z,16.50
2019-06-08T18:36:14.232Z,16.50
2019-06-08T18:38:46.195Z,16.50
2019-06-08T18:41:17.646Z,16.50
2019-06-08T18:43:50.580Z,16.40
2019-06-08T18:46:20.856Z,16.40
2019-06-08T18:48:52.149Z,16.30
2019-06-08T18:51:22.958Z,16.20
2019-06-08T18:54:07.308Z,16.20
2019-06-08T18:56:27.595Z,16.10
2019-06-08T18:58:58.446Z,16.10
2019-06-08T19:01:29.131Z,16.00
2019-06-08T19:03:59.948Z,15.90
2019-06-08T19:06:30.990Z,15.80
2019-06-08T19:09:02.739Z,15.80
2019-06-08T19:11:33.411Z,15.70
2019-06-08T19:14:05.131Z,15.60
2019-06-08T19:16:36.985Z,15.60
2019-06-08T19:19:08.218Z,15.50
2019-06-08T19:21:39.253Z,15.40
2019-06-08T19:24:09.984Z,15.40
2019-06-08T19:26:42.896Z,15.50
2019-06-08T19:29:13.013Z,15.40
2019-06-08T19:31:45.429Z,15.40
2019-06-08T19:34:18.134Z,15.30
2019-06-08T19:36:53.874Z,15.20
2019-06-08T19:39:20.783Z,15.20
2019-06-08T19:41:51.675Z,15.00
2019-06-08T19:44:22.354Z,14.90
2019-06-08T19:46:53.351Z,14.80
2019-06-08T19:49:24.155Z,14.70
2019-06-08T19:51:54.853Z,14.80
2019-06-08T19:54:25.466Z,14.70
2019-06-08T19:56:57.423Z,14.60
2019-06-08T19:59:28.375Z,14.60
2019-06-08T20:01:59.894Z,14.60
2019-06-08T20:04:30.716Z,14.60
2019-06-08T20:07:01.389Z,14.50
2019-06-08T20:09:31.999Z,14.40
2019-06-08T20:12:02.606Z,14.40
2019-06-08T20:14:33.254Z,14.40
2019-06-08T20:17:08.103Z,14.30
2019-06-08T20:19:38.843Z,14.30
2019-06-08T20:22:09.951Z,14.20
2019-06-08T20:24:42.410Z,14.20
2019-06-08T20:27:13.219Z,14.10
2019-06-08T20:29:43.890Z,14.10
2019-06-08T20:32:14.600Z,14.00
2019-06-08T20:34:45.278Z,13.90
2019-06-08T20:37:17.547Z,14.00
2019-06-08T20:40:05.790Z,13.90
2019-06-08T20:42:21.100Z,13.90
2019-06-08T20:44:53.117Z,13.80
2019-06-08T20:47:24.038Z,13.70
2019-06-08T20:49:54.737Z,13.60
2019-06-08T20:52:25.351Z,13.70
2019-06-08T20:54:58.083Z,13.60
2019-06-08T20:57:28.403Z,13.50
2019-06-08T20:59:59.041Z,13.50
2019-06-08T21:02:29.644Z,13.40
2019-06-08T21:05:00.297Z,13.40
2019-06-08T21:07:30.887Z,13.40
2019-06-08T21:10:01.676Z,13.40
2019-06-08T21:12:32.603Z,13.30
2019-06-08T21:15:03.272Z,13.20
2019-06-08T21:17:33.882Z,13.20
2019-06-08T21:20:04.877Z,13.20
2019-06-08T21:22:36.040Z,13.10
2019-06-08T21:25:08.618Z,13.10
2019-06-08T21:27:39.568Z,13.00
2019-06-08T21:30:20.587Z,12.90
2019-06-08T21:32:42.722Z,12.90
2019-06-08T21:35:13.746Z,12.90
2019-06-08T21:37:44.310Z,12.80
2019-06-08T21:40:17.462Z,12.80
2019-06-08T21:42:48.971Z,12.60
2019-06-08T21:45:19.880Z,12.60
2019-06-08T21:47:51.755Z,12.60
2019-06-08T21:50:22.941Z,12.50
2019-06-08T21:52:54.585Z,12.40
2019-06-08T21:55:27.315Z,12.50
2019-06-08T21:58:01.497Z,12.50
2019-06-08T22:00:39.249Z,12.40
2019-06-08T22:03:03.460Z,12.40
2019-06-08T22:05:34.092Z,12.30
2019-06-08T22:08:08.032Z,12.30
2019-06-08T22:10:38.559Z,12.20
2019-06-08T22:13:12.284Z,12.00
2019-06-08T22:15:41.640Z,12.10
2019-06-08T22:18:12.313Z,12.00
2019-06-08T22:20:42.925Z,12.00
2019-06-08T22:23:13.557Z,11.80
2019-06-08T22:25:44.200Z,11.80
2019-06-08T22:28:14.843Z,11.90
2019-06-08T22:30:45.494Z,11.80
2019-06-08T22:33:17.556Z,11.80
2019-06-08T22:35:48.667Z,11.70
2019-06-08T22:38:19.337Z,11.60
2019-06-08T22:40:49.985Z,11.50
2019-06-08T22:43:21.953Z,11.40
2019-06-08T22:45:52.954Z,11.60
2019-06-08T22:48:24.886Z,11.60
2019-06-08T22:50:58.057Z,11.60
2019-06-08T22:53:27.975Z,11.50
2019-06-08T22:56:01.108Z,11.40
2019-06-08T22:58:31.383Z,11.40
2019-06-08T23:01:07.371Z,11.50
2019-06-08T23:03:34.363Z,11.50
2019-06-08T23:06:08.173Z,11.40
2019-06-08T23:08:37.655Z,11.40
2019-06-08T23:11:08.696Z,11.40
2019-06-08T23:13:39.355Z,11.10
2019-06-08T23:16:09.966Z,11.10
2019-06-08T23:18:40.551Z,11.00
2019-06-08T23:21:11.184Z,10.90
2019-06-08T23:23:41.786Z,10.70
2019-06-08T23:26:12.409Z,10.80
2019-06-08T23:28:43.009Z,10.90
2019-06-08T23:31:24.194Z,10.90
2019-06-08T23:33:48.226Z,10.80
2019-06-08T23:36:48.525Z,10.90
2019-06-08T23:38:50.901Z,11.00
2019-06-08T23:41:21.882Z,10.90
2019-06-08T23:43:52.493Z,10.80
2019-06-08T23:46:23.123Z,10.50
2019-06-08T23:48:53.836Z,10.40
2019-06-08T23:51:24.416Z,10.40
2019-06-08T23:53:55.047Z,10.40
2019-06-08T23:56:27.701Z,10.30
2019-06-08T23:58:58.856Z,10.30
